sensor_id;sensor_type;location;lat;lon;timestamp;P1;durP1;ratioP1;P2;durP2;ratioP2
18834;SDS011;9546;59.262;18.036;2022-07-21T00:00:59;6.13;;;4.80;;
18834;SDS011;9546;59.262;18.036;2022-07-21T00:03:27;7.47;;;5.60;;
18834;SDS011;9546;59.262;18.036;2022-07-21T00:05:54;7.65;;;4.60;;
18834;SDS011;9546;59.262;18.036;2022-07-21T00:08:21;5.80;;;4.75;;
18834;SDS011;9546;59.262;18.036;2022-07-21T00:10:48;6.72;;;4.70;;
18834;SDS011;9546;59.262;18.036;2022-07-21T00:13:15;7.57;;;4.95;;
18834;SDS011;9546;59.262;18.036;2022-07-21T00:15:41;6.78;;;5.00;;
18834;SDS011;9546;59.262;18.036;2022-07-21T00:18:09;6.85;;;4.70;;
18834;SDS011;9546;59.262;18.036;2022-07-21T00:20:37;8.73;;;4.80;;
18834;SDS011;9546;59.262;18.036;2022-07-21T00:23:04;7.65;;;4.82;;
18834;SDS011;9546;59.262;18.036;2022-07-21T00:25:31;6.53;;;4.82;;
18834;SDS011;9546;59.262;18.036;2022-07-21T00:27:58;6.75;;;5.57;;
18834;SDS011;9546;59.262;18.036;2022-07-21T00:30:25;6.53;;;4.60;;
18834;SDS011;9546;59.262;18.036;2022-07-21T00:32:52;6.72;;;5.03;;
18834;SDS011;9546;59.262;18.036;2022-07-21T00:35:19;6.18;;;5.25;;
18834;SDS011;9546;59.262;18.036;2022-07-21T00:37:47;6.65;;;5.25;;
18834;SDS011;9546;59.262;18.036;2022-07-21T00:40:14;10.10;;;5.22;;
18834;SDS011;9546;59.262;18.036;2022-07-21T00:42:41;6.03;;;5.13;;
18834;SDS011;9546;59.262;18.036;2022-07-21T00:45:09;9.63;;;5.25;;
18834;SDS011;9546;59.262;18.036;2022-07-21T00:47:37;6.85;;;5.22;;
18834;SDS011;9546;59.262;18.036;2022-07-21T00:50:05;6.50;;;4.90;;
18834;SDS011;9546;59.262;18.036;2022-07-21T01:12:38;6.00;;;4.88;;
18834;SDS011;9546;59.262;18.036;2022-07-21T01:15:06;6.30;;;4.80;;
18834;SDS011;9546;59.262;18.036;2022-07-21T01:17:34;6.68;;;5.13;;
18834;SDS011;9546;59.262;18.036;2022-07-21T01:20:02;7.22;;;4.97;;
18834;SDS011;9546;59.262;18.036;2022-07-21T01:22:32;6.57;;;5.40;;
18834;SDS011;9546;59.262;18.036;2022-07-21T01:25:01;9.48;;;5.47;;
18834;SDS011;9546;59.262;18.036;2022-07-21T01:27:29;7.78;;;5.00;;
18834;SDS011;9546;59.262;18.036;2022-07-21T01:29:56;6.82;;;4.85;;
18834;SDS011;9546;59.262;18.036;2022-07-21T01:32:23;7.65;;;5.43;;
18834;SDS011;9546;59.262;18.036;2022-07-21T01:34:50;10.10;;;5.10;;
18834;SDS011;9546;59.262;18.036;2022-07-21T01:37:19;5.60;;;4.93;;
18834;SDS011;9546;59.262;18.036;2022-07-21T01:39:48;7.70;;;5.18;;
18834;SDS011;9546;59.262;18.036;2022-07-21T01:42:33;6.20;;;5.00;;
18834;SDS011;9546;59.262;18.036;2022-07-21T01:45:00;7.68;;;5.43;;
18834;SDS011;9546;59.262;18.036;2022-07-21T01:47:27;6.15;;;4.68;;
18834;SDS011;9546;59.262;18.036;2022-07-21T01:49:54;6.57;;;5.07;;
18834;SDS011;9546;59.262;18.036;2022-07-21T01:52:21;6.35;;;4.97;;
18834;SDS011;9546;59.262;18.036;2022-07-21T01:54:51;8.85;;;5.45;;
18834;SDS011;9546;59.262;18.036;2022-07-21T01:57:18;6.95;;;5.05;;
18834;SDS011;9546;59.262;18.036;2022-07-21T01:59:45;5.90;;;5.07;;
18834;SDS011;9546;59.262;18.036;2022-07-21T02:02:12;6.13;;;5.10;;
18834;SDS011;9546;59.262;18.036;2022-07-21T02:04:39;5.95;;;4.90;;
18834;SDS011;9546;59.262;18.036;2022-07-21T02:07:05;6.65;;;5.28;;
18834;SDS011;9546;59.262;18.036;2022-07-21T02:09:32;7.90;;;5.45;;
18834;SDS011;9546;59.262;18.036;2022-07-21T02:12:00;8.73;;;5.30;;
18834;SDS011;9546;59.262;18.036;2022-07-21T02:14:27;5.90;;;5.00;;
18834;SDS011;9546;59.262;18.036;2022-07-21T02:16:54;7.03;;;5.25;;
18834;SDS011;9546;59.262;18.036;2022-07-21T02:19:21;7.22;;;5.20;;
18834;SDS011;9546;59.262;18.036;2022-07-21T02:21:48;10.52;;;5.70;;
18834;SDS011;9546;59.262;18.036;2022-07-21T02:24:15;9.60;;;4.95;;
18834;SDS011;9546;59.262;18.036;2022-07-21T02:26:41;7.97;;;5.50;;
18834;SDS011;9546;59.262;18.036;2022-07-21T02:29:10;7.03;;;5.30;;
18834;SDS011;9546;59.262;18.036;2022-07-21T02:31:36;8.35;;;5.20;;
18834;SDS011;9546;59.262;18.036;2022-07-21T02:34:03;8.45;;;5.38;;
18834;SDS011;9546;59.262;18.036;2022-07-21T02:36:31;7.00;;;4.93;;
18834;SDS011;9546;59.262;18.036;2022-07-21T02:38:58;6.25;;;5.50;;
18834;SDS011;9546;59.262;18.036;2022-07-21T02:41:25;7.72;;;5.28;;
18834;SDS011;9546;59.262;18.036;2022-07-21T02:43:51;7.38;;;5.93;;
18834;SDS011;9546;59.262;18.036;2022-07-21T02:46:20;8.02;;;5.20;;
18834;SDS011;9546;59.262;18.036;2022-07-21T02:48:46;6.78;;;5.10;;
18834;SDS011;9546;59.262;18.036;2022-07-21T03:12:34;8.68;;;5.45;;
18834;SDS011;9546;59.262;18.036;2022-07-21T03:15:01;6.47;;;5.00;;
18834;SDS011;9546;59.262;18.036;2022-07-21T03:17:27;9.00;;;4.88;;
18834;SDS011;9546;59.262;18.036;2022-07-21T03:19:54;7.25;;;5.32;;
18834;SDS011;9546;59.262;18.036;2022-07-21T03:22:21;7.70;;;5.28;;
18834;SDS011;9546;59.262;18.036;2022-07-21T03:24:48;8.10;;;5.30;;
18834;SDS011;9546;59.262;18.036;2022-07-21T03:27:16;5.90;;;4.82;;
18834;SDS011;9546;59.262;18.036;2022-07-21T03:29:44;7.75;;;5.13;;
18834;SDS011;9546;59.262;18.036;2022-07-21T03:32:11;6.55;;;4.90;;
18834;SDS011;9546;59.262;18.036;2022-07-21T03:34:37;6.95;;;5.45;;
18834;SDS011;9546;59.262;18.036;2022-07-21T03:37:04;7.38;;;5.35;;
18834;SDS011;9546;59.262;18.036;2022-07-21T03:39:31;7.70;;;4.93;;
18834;SDS011;9546;59.262;18.036;2022-07-21T03:41:58;6.00;;;5.10;;
18834;SDS011;9546;59.262;18.036;2022-07-21T03:44:25;5.28;;;4.78;;
18834;SDS011;9546;59.262;18.036;2022-07-21T03:46:53;6.45;;;4.97;;
18834;SDS011;9546;59.262;18.036;2022-07-21T03:49:21;6.95;;;5.15;;
18834;SDS011;9546;59.262;18.036;2022-07-21T03:51:48;7.18;;;5.47;;
18834;SDS011;9546;59.262;18.036;2022-07-21T03:54:15;5.88;;;5.28;;
18834;SDS011;9546;59.262;18.036;2022-07-21T03:56:42;7.32;;;4.97;;
18834;SDS011;9546;59.262;18.036;2022-07-21T03:59:08;7.82;;;5.10;;
18834;SDS011;9546;59.262;18.036;2022-07-21T04:01:35;7.05;;;5.20;;
18834;SDS011;9546;59.262;18.036;2022-07-21T04:04:04;6.50;;;4.72;;
18834;SDS011;9546;59.262;18.036;2022-07-21T04:06:30;7.03;;;4.85;;
18834;SDS011;9546;59.262;18.036;2022-07-21T04:08:57;7.93;;;5.03;;
18834;SDS011;9546;59.262;18.036;2022-07-21T04:11:24;6.88;;;4.70;;
18834;SDS011;9546;59.262;18.036;2022-07-21T04:13:51;10.35;;;5.28;;
18834;SDS011;9546;59.262;18.036;2022-07-21T04:16:18;6.93;;;5.13;;
18834;SDS011;9546;59.262;18.036;2022-07-21T04:18:44;9.48;;;5.28;;
18834;SDS011;9546;59.262;18.036;2022-07-21T04:21:13;7.32;;;5.05;;
18834;SDS011;9546;59.262;18.036;2022-07-21T04:23:40;6.82;;;5.35;;
18834;SDS011;9546;59.262;18.036;2022-07-21T04:26:06;9.25;;;4.88;;
18834;SDS011;9546;59.262;18.036;2022-07-21T04:28:33;5.25;;;4.75;;
18834;SDS011;9546;59.262;18.036;2022-07-21T04:31:00;9.73;;;5.65;;
18834;SDS011;9546;59.262;18.036;2022-07-21T04:33:27;6.20;;;5.32;;
18834;SDS011;9546;59.262;18.036;2022-07-21T04:35:54;6.07;;;5.35;;
18834;SDS011;9546;59.262;18.036;2022-07-21T04:38:22;8.70;;;5.40;;
18834;SDS011;9546;59.262;18.036;2022-07-21T04:40:49;6.25;;;5.15;;
18834;SDS011;9546;59.262;18.036;2022-07-21T04:43:15;9.52;;;5.97;;
18834;SDS011;9546;59.262;18.036;2022-07-21T04:45:42;6.90;;;5.30;;
18834;SDS011;9546;59.262;18.036;2022-07-21T04:48:09;7.15;;;5.60;;
18834;SDS011;9546;59.262;18.036;2022-07-21T04:50:36;9.70;;;5.00;;
18834;SDS011;9546;59.262;18.036;2022-07-21T05:11:50;10.18;;;5.75;;
18834;SDS011;9546;59.262;18.036;2022-07-21T05:14:17;8.45;;;5.85;;
18834;SDS011;9546;59.262;18.036;2022-07-21T05:16:43;7.80;;;5.97;;
18834;SDS011;9546;59.262;18.036;2022-07-21T05:19:10;8.02;;;5.88;;
18834;SDS011;9546;59.262;18.036;2022-07-21T05:21:37;7.35;;;6.25;;
18834;SDS011;9546;59.262;18.036;2022-07-21T05:24:04;7.35;;;5.95;;
18834;SDS011;9546;59.262;18.036;2022-07-21T05:26:31;15.73;;;5.97;;
18834;SDS011;9546;59.262;18.036;2022-07-21T05:29:00;7.97;;;5.97;;
18834;SDS011;9546;59.262;18.036;2022-07-21T05:31:27;6.97;;;6.28;;
18834;SDS011;9546;59.262;18.036;2022-07-21T05:33:53;7.25;;;5.88;;
18834;SDS011;9546;59.262;18.036;2022-07-21T05:36:20;9.82;;;6.35;;
18834;SDS011;9546;59.262;18.036;2022-07-21T05:38:47;10.10;;;6.10;;
18834;SDS011;9546;59.262;18.036;2022-07-21T05:41:14;9.07;;;6.28;;
18834;SDS011;9546;59.262;18.036;2022-07-21T05:43:40;7.50;;;6.35;;
18834;SDS011;9546;59.262;18.036;2022-07-21T05:46:09;6.57;;;5.82;;
18834;SDS011;9546;59.262;18.036;2022-07-21T05:48:35;8.57;;;6.22;;
18834;SDS011;9546;59.262;18.036;2022-07-21T05:51:02;6.95;;;6.20;;
18834;SDS011;9546;59.262;18.036;2022-07-21T05:53:29;9.00;;;6.43;;
18834;SDS011;9546;59.262;18.036;2022-07-21T05:55:56;7.68;;;6.35;;
18834;SDS011;9546;59.262;18.036;2022-07-21T05:58:23;7.88;;;5.75;;
18834;SDS011;9546;59.262;18.036;2022-07-21T06:00:50;9.25;;;6.85;;
18834;SDS011;9546;59.262;18.036;2022-07-21T06:03:32;8.93;;;6.32;;
18834;SDS011;9546;59.262;18.036;2022-07-21T06:05:59;7.97;;;6.35;;
18834;SDS011;9546;59.262;18.036;2022-07-21T06:08:25;13.25;;;5.95;;
18834;SDS011;9546;59.262;18.036;2022-07-21T06:10:52;9.20;;;6.22;;
18834;SDS011;9546;59.262;18.036;2022-07-21T06:13:19;6.63;;;5.93;;
18834;SDS011;9546;59.262;18.036;2022-07-21T06:15:46;8.45;;;5.82;;
18834;SDS011;9546;59.262;18.036;2022-07-21T06:18:13;7.03;;;5.75;;
18834;SDS011;9546;59.262;18.036;2022-07-21T06:20:41;6.63;;;5.93;;
18834;SDS011;9546;59.262;18.036;2022-07-21T06:23:08;9.30;;;6.55;;
18834;SDS011;9546;59.262;18.036;2022-07-21T06:25:35;7.95;;;6.68;;
18834;SDS011;9546;59.262;18.036;2022-07-21T06:28:02;8.43;;;6.20;;
18834;SDS011;9546;59.262;18.036;2022-07-21T06:30:29;8.95;;;6.55;;
18834;SDS011;9546;59.262;18.036;2022-07-21T06:32:56;8.75;;;6.40;;
18834;SDS011;9546;59.262;18.036;2022-07-21T06:35:23;8.00;;;6.30;;
18834;SDS011;9546;59.262;18.036;2022-07-21T06:37:51;8.13;;;6.38;;
18834;SDS011;9546;59.262;18.036;2022-07-21T06:40:18;6.75;;;5.90;;
18834;SDS011;9546;59.262;18.036;2022-07-21T06:42:45;8.30;;;6.72;;
18834;SDS011;9546;59.262;18.036;2022-07-21T06:45:12;6.47;;;5.90;;
18834;SDS011;9546;59.262;18.036;2022-07-21T06:47:39;9.30;;;6.63;;
18834;SDS011;9546;59.262;18.036;2022-07-21T06:50:06;7.70;;;6.40;;
18834;SDS011;9546;59.262;18.036;2022-07-21T07:12:10;9.32;;;5.90;;
18834;SDS011;9546;59.262;18.036;2022-07-21T07:14:36;7.47;;;6.60;;
18834;SDS011;9546;59.262;18.036;2022-07-21T07:17:03;10.48;;;6.57;;
18834;SDS011;9546;59.262;18.036;2022-07-21T07:19:30;7.60;;;6.10;;
18834;SDS011;9546;59.262;18.036;2022-07-21T07:21:57;8.80;;;6.18;;
18834;SDS011;9546;59.262;18.036;2022-07-21T07:24:24;6.20;;;5.60;;
18834;SDS011;9546;59.262;18.036;2022-07-21T07:26:51;7.47;;;5.95;;
18834;SDS011;9546;59.262;18.036;2022-07-21T07:29:20;9.13;;;6.13;;
18834;SDS011;9546;59.262;18.036;2022-07-21T07:31:46;6.90;;;6.20;;
18834;SDS011;9546;59.262;18.036;2022-07-21T07:34:13;8.40;;;5.75;;
18834;SDS011;9546;59.262;18.036;2022-07-21T07:36:40;6.60;;;6.00;;
18834;SDS011;9546;59.262;18.036;2022-07-21T07:39:07;7.25;;;6.00;;
18834;SDS011;9546;59.262;18.036;2022-07-21T07:41:34;8.23;;;5.82;;
18834;SDS011;9546;59.262;18.036;2022-07-21T07:44:00;6.35;;;5.75;;
18834;SDS011;9546;59.262;18.036;2022-07-21T07:46:29;8.85;;;6.60;;
18834;SDS011;9546;59.262;18.036;2022-07-21T07:48:56;8.85;;;6.30;;
18834;SDS011;9546;59.262;18.036;2022-07-21T07:51:24;7.72;;;6.00;;
18834;SDS011;9546;59.262;18.036;2022-07-21T07:53:51;7.43;;;5.32;;
18834;SDS011;9546;59.262;18.036;2022-07-21T07:56:18;11.00;;;7.10;;
18834;SDS011;9546;59.262;18.036;2022-07-21T07:58:45;7.53;;;6.80;;
18834;SDS011;9546;59.262;18.036;2022-07-21T08:01:12;9.25;;;5.68;;
18834;SDS011;9546;59.262;18.036;2022-07-21T08:03:42;7.00;;;6.00;;
18834;SDS011;9546;59.262;18.036;2022-07-21T08:06:09;8.38;;;5.97;;
18834;SDS011;9546;59.262;18.036;2022-07-21T08:08:36;8.95;;;6.10;;
18834;SDS011;9546;59.262;18.036;2022-07-21T08:11:03;10.85;;;6.70;;
18834;SDS011;9546;59.262;18.036;2022-07-21T08:13:30;8.52;;;6.03;;
18834;SDS011;9546;59.262;18.036;2022-07-21T08:15:57;8.75;;;6.38;;
18834;SDS011;9546;59.262;18.036;2022-07-21T08:18:24;8.27;;;6.22;;
18834;SDS011;9546;59.262;18.036;2022-07-21T08:20:52;6.53;;;5.50;;
18834;SDS011;9546;59.262;18.036;2022-07-21T08:23:19;6.88;;;5.75;;
18834;SDS011;9546;59.262;18.036;2022-07-21T08:25:46;8.77;;;5.72;;
18834;SDS011;9546;59.262;18.036;2022-07-21T08:28:13;8.05;;;5.93;;
18834;SDS011;9546;59.262;18.036;2022-07-21T08:30:39;10.00;;;6.20;;
18834;SDS011;9546;59.262;18.036;2022-07-21T08:33:06;11.00;;;6.10;;
18834;SDS011;9546;59.262;18.036;2022-07-21T08:35:33;9.18;;;5.70;;
18834;SDS011;9546;59.262;18.036;2022-07-21T08:38:03;13.32;;;5.50;;
18834;SDS011;9546;59.262;18.036;2022-07-21T08:40:32;10.38;;;5.65;;
18834;SDS011;9546;59.262;18.036;2022-07-21T08:43:02;7.43;;;5.85;;
18834;SDS011;9546;59.262;18.036;2022-07-21T08:45:29;13.13;;;5.80;;
18834;SDS011;9546;59.262;18.036;2022-07-21T08:47:56;9.10;;;5.25;;
18834;SDS011;9546;59.262;18.036;2022-07-21T08:50:25;7.20;;;5.38;;
18834;SDS011;9546;59.262;18.036;2022-07-21T09:12:29;6.05;;;4.93;;
18834;SDS011;9546;59.262;18.036;2022-07-21T09:17:38;12.02;;;5.60;;
18834;SDS011;9546;59.262;18.036;2022-07-21T09:20:06;7.72;;;5.43;;
18834;SDS011;9546;59.262;18.036;2022-07-21T09:23:00;6.07;;;5.32;;
18834;SDS011;9546;59.262;18.036;2022-07-21T09:25:38;7.95;;;5.28;;
18834;SDS011;9546;59.262;18.036;2022-07-21T09:28:12;10.73;;;5.63;;
18834;SDS011;9546;59.262;18.036;2022-07-21T09:30:50;9.40;;;6.03;;
18834;SDS011;9546;59.262;18.036;2022-07-21T09:33:36;5.95;;;5.35;;
18834;SDS011;9546;59.262;18.036;2022-07-21T09:36:18;12.63;;;5.72;;
18834;SDS011;9546;59.262;18.036;2022-07-21T09:38:49;7.60;;;6.00;;
18834;SDS011;9546;59.262;18.036;2022-07-21T09:41:18;8.20;;;5.45;;
18834;SDS011;9546;59.262;18.036;2022-07-21T09:43:48;5.70;;;5.18;;
18834;SDS011;9546;59.262;18.036;2022-07-21T09:46:17;6.45;;;5.38;;
18834;SDS011;9546;59.262;18.036;2022-07-21T09:48:46;6.68;;;5.32;;
18834;SDS011;9546;59.262;18.036;2022-07-21T09:51:21;5.22;;;4.72;;
18834;SDS011;9546;59.262;18.036;2022-07-21T09:53:55;5.97;;;5.38;;
18834;SDS011;9546;59.262;18.036;2022-07-21T09:56:24;7.07;;;5.40;;
18834;SDS011;9546;59.262;18.036;2022-07-21T09:58:54;6.57;;;4.97;;
18834;SDS011;9546;59.262;18.036;2022-07-21T10:01:23;5.97;;;4.80;;
18834;SDS011;9546;59.262;18.036;2022-07-21T10:03:51;6.70;;;5.25;;
18834;SDS011;9546;59.262;18.036;2022-07-21T10:06:19;5.50;;;5.00;;
18834;SDS011;9546;59.262;18.036;2022-07-21T10:08:48;7.88;;;5.40;;
18834;SDS011;9546;59.262;18.036;2022-07-21T10:11:16;5.20;;;4.70;;
18834;SDS011;9546;59.262;18.036;2022-07-21T10:13:43;5.97;;;4.95;;
18834;SDS011;9546;59.262;18.036;2022-07-21T10:16:11;4.88;;;4.47;;
18834;SDS011;9546;59.262;18.036;2022-07-21T10:18:41;5.80;;;4.80;;
18834;SDS011;9546;59.262;18.036;2022-07-21T10:21:35;5.15;;;4.65;;
18834;SDS011;9546;59.262;18.036;2022-07-21T10:24:09;5.38;;;4.88;;
18834;SDS011;9546;59.262;18.036;2022-07-21T10:26:37;10.32;;;4.90;;
18834;SDS011;9546;59.262;18.036;2022-07-21T10:29:04;8.65;;;5.25;;
18834;SDS011;9546;59.262;18.036;2022-07-21T10:31:34;5.75;;;4.60;;
18834;SDS011;9546;59.262;18.036;2022-07-21T10:34:08;5.28;;;4.78;;
18834;SDS011;9546;59.262;18.036;2022-07-21T10:36:45;7.57;;;4.28;;
18834;SDS011;9546;59.262;18.036;2022-07-21T10:39:13;5.57;;;5.03;;
18834;SDS011;9546;59.262;18.036;2022-07-21T10:41:48;4.72;;;4.28;;
18834;SDS011;9546;59.262;18.036;2022-07-21T10:47:11;5.90;;;4.65;;
18834;SDS011;9546;59.262;18.036;2022-07-21T10:49:50;5.35;;;4.70;;
18834;SDS011;9546;59.262;18.036;2022-07-21T11:12:18;5.68;;;5.00;;
18834;SDS011;9546;59.262;18.036;2022-07-21T11:14:45;6.78;;;4.60;;
18834;SDS011;9546;59.262;18.036;2022-07-21T11:17:23;6.38;;;5.00;;
18834;SDS011;9546;59.262;18.036;2022-07-21T11:19:51;5.28;;;4.40;;
18834;SDS011;9546;59.262;18.036;2022-07-21T11:22:19;10.38;;;5.13;;
18834;SDS011;9546;59.262;18.036;2022-07-21T11:24:49;6.90;;;4.88;;
18834;SDS011;9546;59.262;18.036;2022-07-21T11:27:19;6.28;;;5.10;;
18834;SDS011;9546;59.262;18.036;2022-07-21T11:29:48;7.80;;;4.75;;
18834;SDS011;9546;59.262;18.036;2022-07-21T11:32:16;6.25;;;4.40;;
18834;SDS011;9546;59.262;18.036;2022-07-21T11:34:45;5.93;;;5.05;;
18834;SDS011;9546;59.262;18.036;2022-07-21T11:37:15;5.68;;;4.65;;
18834;SDS011;9546;59.262;18.036;2022-07-21T11:39:43;5.40;;;4.20;;
18834;SDS011;9546;59.262;18.036;2022-07-21T11:42:12;7.30;;;4.82;;
18834;SDS011;9546;59.262;18.036;2022-07-21T11:44:42;7.13;;;5.15;;
18834;SDS011;9546;59.262;18.036;2022-07-21T11:47:10;7.20;;;4.82;;
18834;SDS011;9546;59.262;18.036;2022-07-21T11:49:39;5.35;;;4.30;;
18834;SDS011;9546;59.262;18.036;2022-07-21T11:52:07;6.35;;;3.63;;
18834;SDS011;9546;59.262;18.036;2022-07-21T11:54:36;5.07;;;4.07;;
18834;SDS011;9546;59.262;18.036;2022-07-21T11:57:05;8.30;;;4.15;;
18834;SDS011;9546;59.262;18.036;2022-07-21T11:59:33;6.07;;;4.18;;
18834;SDS011;9546;59.262;18.036;2022-07-21T12:02:05;5.70;;;3.88;;
18834;SDS011;9546;59.262;18.036;2022-07-21T12:04:34;4.47;;;3.88;;
18834;SDS011;9546;59.262;18.036;2022-07-21T12:07:04;6.47;;;4.00;;
18834;SDS011;9546;59.262;18.036;2022-07-21T12:09:32;7.10;;;3.90;;
18834;SDS011;9546;59.262;18.036;2022-07-21T12:12:00;5.88;;;4.55;;
18834;SDS011;9546;59.262;18.036;2022-07-21T12:14:46;5.10;;;3.95;;
18834;SDS011;9546;59.262;18.036;2022-07-21T12:17:17;4.80;;;3.58;;
18834;SDS011;9546;59.262;18.036;2022-07-21T12:19:58;4.15;;;3.75;;
18834;SDS011;9546;59.262;18.036;2022-07-21T12:22:31;6.90;;;3.60;;
18834;SDS011;9546;59.262;18.036;2022-07-21T12:24:59;6.05;;;3.60;;
18834;SDS011;9546;59.262;18.036;2022-07-21T12:27:27;6.25;;;3.30;;
18834;SDS011;9546;59.262;18.036;2022-07-21T12:29:53;4.70;;;2.55;;
18834;SDS011;9546;59.262;18.036;2022-07-21T12:38:05;5.68;;;3.00;;
18834;SDS011;9546;59.262;18.036;2022-07-21T12:40:34;4.22;;;3.00;;
18834;SDS011;9546;59.262;18.036;2022-07-21T12:43:03;2.95;;;2.65;;
18834;SDS011;9546;59.262;18.036;2022-07-21T12:45:49;5.05;;;2.83;;
18834;SDS011;9546;59.262;18.036;2022-07-21T12:48:19;4.13;;;2.38;;
18834;SDS011;9546;59.262;18.036;2022-07-21T12:50:56;3.88;;;2.50;;
18834;SDS011;9546;59.262;18.036;2022-07-21T13:12:32;4.50;;;3.50;;
18834;SDS011;9546;59.262;18.036;2022-07-21T13:14:58;5.45;;;3.45;;
18834;SDS011;9546;59.262;18.036;2022-07-21T13:17:25;5.60;;;3.40;;
18834;SDS011;9546;59.262;18.036;2022-07-21T13:19:52;6.50;;;3.63;;
18834;SDS011;9546;59.262;18.036;2022-07-21T13:22:18;3.80;;;3.50;;
18834;SDS011;9546;59.262;18.036;2022-07-21T13:24:45;7.45;;;3.88;;
18834;SDS011;9546;59.262;18.036;2022-07-21T13:27:11;3.55;;;3.15;;
18834;SDS011;9546;59.262;18.036;2022-07-21T13:29:39;8.85;;;3.97;;
18834;SDS011;9546;59.262;18.036;2022-07-21T13:32:06;6.55;;;3.58;;
18834;SDS011;9546;59.262;18.036;2022-07-21T13:34:33;6.05;;;3.83;;
18834;SDS011;9546;59.262;18.036;2022-07-21T13:37:00;4.90;;;3.88;;
18834;SDS011;9546;59.262;18.036;2022-07-21T13:39:26;4.80;;;4.28;;
18834;SDS011;9546;59.262;18.036;2022-07-21T13:41:54;4.85;;;4.03;;
18834;SDS011;9546;59.262;18.036;2022-07-21T13:44:20;4.65;;;3.83;;
18834;SDS011;9546;59.262;18.036;2022-07-21T13:46:48;6.97;;;4.30;;
18834;SDS011;9546;59.262;18.036;2022-07-21T13:49:14;9.35;;;4.50;;
18834;SDS011;9546;59.262;18.036;2022-07-21T13:51:41;5.90;;;4.88;;
18834;SDS011;9546;59.262;18.036;2022-07-21T13:54:08;5.03;;;4.53;;
18834;SDS011;9546;59.262;18.036;2022-07-21T13:56:34;8.00;;;4.90;;
18834;SDS011;9546;59.262;18.036;2022-07-21T13:59:01;5.38;;;4.70;;
18834;SDS011;9546;59.262;18.036;2022-07-21T14:01:27;5.50;;;5.00;;
18834;SDS011;9546;59.262;18.036;2022-07-21T14:03:55;6.07;;;5.05;;
18834;SDS011;9546;59.262;18.036;2022-07-21T14:06:22;7.32;;;5.57;;
18834;SDS011;9546;59.262;18.036;2022-07-21T14:08:49;5.43;;;5.03;;
18834;SDS011;9546;59.262;18.036;2022-07-21T14:11:16;6.35;;;5.75;;
18834;SDS011;9546;59.262;18.036;2022-07-21T14:13:42;7.65;;;5.68;;
18834;SDS011;9546;59.262;18.036;2022-07-21T14:16:09;7.38;;;6.13;;
18834;SDS011;9546;59.262;18.036;2022-07-21T14:18:35;6.57;;;6.03;;
18834;SDS011;9546;59.262;18.036;2022-07-21T14:21:04;8.77;;;5.95;;
18834;SDS011;9546;59.262;18.036;2022-07-21T14:23:30;7.07;;;6.18;;
18834;SDS011;9546;59.262;18.036;2022-07-21T14:25:58;8.07;;;6.32;;
18834;SDS011;9546;59.262;18.036;2022-07-21T14:28:24;7.38;;;6.25;;
18834;SDS011;9546;59.262;18.036;2022-07-21T14:30:51;6.85;;;6.10;;
18834;SDS011;9546;59.262;18.036;2022-07-21T14:33:18;8.63;;;6.65;;
18834;SDS011;9546;59.262;18.036;2022-07-21T14:35:44;7.35;;;6.65;;
18834;SDS011;9546;59.262;18.036;2022-07-21T14:38:12;7.75;;;6.28;;
18834;SDS011;9546;59.262;18.036;2022-07-21T14:40:39;7.57;;;6.47;;
18834;SDS011;9546;59.262;18.036;2022-07-21T14:43:05;9.23;;;6.82;;
18834;SDS011;9546;59.262;18.036;2022-07-21T14:45:32;7.50;;;6.40;;
18834;SDS011;9546;59.262;18.036;2022-07-21T14:47:58;8.02;;;7.00;;
18834;SDS011;9546;59.262;18.036;2022-07-21T14:50:25;9.48;;;6.60;;
18834;SDS011;9546;59.262;18.036;2022-07-21T14:52:52;9.20;;;6.47;;
18834;SDS011;9546;59.262;18.036;2022-07-21T15:12:55;12.65;;;7.90;;
18834;SDS011;9546;59.262;18.036;2022-07-21T15:15:22;9.05;;;7.03;;
18834;SDS011;9546;59.262;18.036;2022-07-21T15:17:49;10.50;;;6.60;;
18834;SDS011;9546;59.262;18.036;2022-07-21T15:20:16;12.05;;;6.80;;
18834;SDS011;9546;59.262;18.036;2022-07-21T15:22:42;7.75;;;7.00;;
18834;SDS011;9546;59.262;18.036;2022-07-21T15:25:09;9.40;;;6.32;;
18834;SDS011;9546;59.262;18.036;2022-07-21T15:27:37;7.18;;;6.45;;
18834;SDS011;9546;59.262;18.036;2022-07-21T15:30:07;9.90;;;6.43;;
18834;SDS011;9546;59.262;18.036;2022-07-21T15:32:36;7.88;;;6.40;;
18834;SDS011;9546;59.262;18.036;2022-07-21T15:35:03;7.60;;;5.45;;
18834;SDS011;9546;59.262;18.036;2022-07-21T15:37:31;7.05;;;6.10;;
18834;SDS011;9546;59.262;18.036;2022-07-21T15:39:58;7.03;;;6.00;;
18834;SDS011;9546;59.262;18.036;2022-07-21T15:42:25;6.45;;;5.82;;
18834;SDS011;9546;59.262;18.036;2022-07-21T15:44:53;8.00;;;5.68;;
18834;SDS011;9546;59.262;18.036;2022-07-21T15:47:22;7.30;;;5.55;;
18834;SDS011;9546;59.262;18.036;2022-07-21T15:49:49;9.40;;;6.45;;
18834;SDS011;9546;59.262;18.036;2022-07-21T15:52:15;9.82;;;5.38;;
18834;SDS011;9546;59.262;18.036;2022-07-21T15:54:42;6.72;;;5.10;;
18834;SDS011;9546;59.262;18.036;2022-07-21T15:57:09;10.77;;;6.30;;
18834;SDS011;9546;59.262;18.036;2022-07-21T15:59:36;7.35;;;5.40;;
18834;SDS011;9546;59.262;18.036;2022-07-21T16:02:04;7.68;;;5.82;;
18834;SDS011;9546;59.262;18.036;2022-07-21T16:04:34;8.48;;;5.70;;
18834;SDS011;9546;59.262;18.036;2022-07-21T16:07:01;8.32;;;5.57;;
18834;SDS011;9546;59.262;18.036;2022-07-21T16:09:29;8.45;;;5.45;;
18834;SDS011;9546;59.262;18.036;2022-07-21T16:11:56;8.57;;;5.78;;
18834;SDS011;9546;59.262;18.036;2022-07-21T16:14:24;7.72;;;5.57;;
18834;SDS011;9546;59.262;18.036;2022-07-21T16:16:52;5.97;;;5.38;;
18834;SDS011;9546;59.262;18.036;2022-07-21T16:19:19;7.85;;;5.20;;
18834;SDS011;9546;59.262;18.036;2022-07-21T16:21:48;7.00;;;5.20;;
18834;SDS011;9546;59.262;18.036;2022-07-21T16:24:15;6.97;;;5.55;;
18834;SDS011;9546;59.262;18.036;2022-07-21T16:26:42;8.25;;;5.43;;
18834;SDS011;9546;59.262;18.036;2022-07-21T16:29:09;6.45;;;5.35;;
18834;SDS011;9546;59.262;18.036;2022-07-21T16:31:37;6.85;;;5.72;;
18834;SDS011;9546;59.262;18.036;2022-07-21T16:34:05;5.75;;;5.13;;
18834;SDS011;9546;59.262;18.036;2022-07-21T16:36:32;8.70;;;5.65;;
18834;SDS011;9546;59.262;18.036;2022-07-21T16:39:01;10.82;;;5.88;;
18834;SDS011;9546;59.262;18.036;2022-07-21T16:41:28;8.57;;;5.60;;
18834;SDS011;9546;59.262;18.036;2022-07-21T16:43:55;6.53;;;5.63;;
18834;SDS011;9546;59.262;18.036;2022-07-21T16:46:22;7.07;;;5.65;;
18834;SDS011;9546;59.262;18.036;2022-07-21T16:48:48;6.00;;;5.40;;
18834;SDS011;9546;59.262;18.036;2022-07-21T16:51:16;7.18;;;5.85;;
18834;SDS011;9546;59.262;18.036;2022-07-21T17:12:15;9.48;;;6.07;;
18834;SDS011;9546;59.262;18.036;2022-07-21T17:14:42;6.95;;;5.53;;
18834;SDS011;9546;59.262;18.036;2022-07-21T17:17:09;6.93;;;5.43;;
18834;SDS011;9546;59.262;18.036;2022-07-21T17:19:36;8.60;;;5.82;;
18834;SDS011;9546;59.262;18.036;2022-07-21T17:22:02;6.00;;;5.20;;
18834;SDS011;9546;59.262;18.036;2022-07-21T17:24:29;8.00;;;5.40;;
18834;SDS011;9546;59.262;18.036;2022-07-21T17:26:56;5.97;;;4.60;;
18834;SDS011;9546;59.262;18.036;2022-07-21T17:29:25;7.03;;;5.13;;
18834;SDS011;9546;59.262;18.036;2022-07-21T17:31:51;7.10;;;5.43;;
18834;SDS011;9546;59.262;18.036;2022-07-21T17:34:18;7.60;;;5.53;;
18834;SDS011;9546;59.262;18.036;2022-07-21T17:36:45;7.40;;;5.75;;
18834;SDS011;9546;59.262;18.036;2022-07-21T17:39:12;7.43;;;5.47;;
18834;SDS011;9546;59.262;18.036;2022-07-21T17:41:39;6.90;;;5.13;;
18834;SDS011;9546;59.262;18.036;2022-07-21T17:44:05;10.93;;;5.45;;
18834;SDS011;9546;59.262;18.036;2022-07-21T17:46:34;8.70;;;5.18;;
18834;SDS011;9546;59.262;18.036;2022-07-21T17:49:00;5.95;;;5.35;;
18834;SDS011;9546;59.262;18.036;2022-07-21T17:51:27;6.53;;;5.07;;
18834;SDS011;9546;59.262;18.036;2022-07-21T17:53:54;8.10;;;5.82;;
18834;SDS011;9546;59.262;18.036;2022-07-21T17:56:21;5.97;;;5.22;;